Denver, Colorado
Traffic Map
Current Weather Conditions
Denver, Colorado
Overcast
Overcast
37°
Feels Like: 33°
Wind Chill: 33° Ceiling: 400
Heat Index: 37° Visibility: 7mi
Dew Point: 37° Wind: 6mph
Humidity: 100% Direction: 30° (NNE)
Pressure: 30.14in Gusts: 0mph
Raw Report DataKBKF 271038Z 03005KT 7SM OVC004 03/03 A3014 RMK AO2A
Traffic Incident Summary
Active as of:
Severity:
Category:
InformationThere was an issue retrieving the traffic information for this location. Please try a different location or try again shortly.
Advertisements
Track Severe Weather on mobile